Terminal Aerodrome Forecast
Issued by NWS

Home | Current Version | Previous Version | Text Only | Print | Product List | Glossary On
Versions: 1 2 3 4 5 6 7 8 9 10 11 12 13 14 15
025
FTUS46 KMTR 200902 AAA
TAFSNS
TAF AMD
KSNS 200902Z 2009/2106 VRB05KT P6SM SKC
     FM201130 VRB04KT P6SM BKN013
     FM201600 VRB04KT P6SM SCT020
     FM201800 27008KT P6SM SCT020
     FM202100 27012KT P6SM FEW020
     FM210500 27005KT P6SM SKC=

USA.gov is the U.S. government's official web portal to all federal, state and local government web resources and services.